createdAt,value
2017-12-21T00:00:45.371Z,7.63
2017-12-21T00:03:13.736Z,7.77
2017-12-21T00:05:42.059Z,7.67
2017-12-21T00:08:10.410Z,7.76
2017-12-21T00:10:38.747Z,7.69
2017-12-21T00:13:07.102Z,7.73
2017-12-21T00:15:35.434Z,7.71
2017-12-21T00:18:03.792Z,7.69
2017-12-21T00:20:32.122Z,7.63
2017-12-21T00:23:00.474Z,7.63
2017-12-21T00:25:28.805Z,7.64
2017-12-21T00:27:57.162Z,7.60
2017-12-21T00:30:25.622Z,7.73
2017-12-21T00:32:53.978Z,7.75
2017-12-21T00:35:22.313Z,7.74
2017-12-21T00:37:50.670Z,7.75
2017-12-21T00:40:19.014Z,7.84
2017-12-21T00:42:47.367Z,7.83
2017-12-21T00:45:15.698Z,7.87
2017-12-21T00:47:44.054Z,7.85
2017-12-21T00:50:12.385Z,7.82
2017-12-21T00:52:40.746Z,7.87
2017-12-21T00:55:09.073Z,7.89
2017-12-21T00:57:37.427Z,7.87
2017-12-21T01:00:05.758Z,7.87
2017-12-21T01:02:34.141Z,7.83
2017-12-21T01:05:02.475Z,8.01
2017-12-21T01:07:30.807Z,7.97
2017-12-21T01:09:59.191Z,7.88
2017-12-21T01:12:27.527Z,7.82
2017-12-21T01:14:55.880Z,7.81
2017-12-21T01:17:24.226Z,7.80
2017-12-21T01:19:52.578Z,7.82
2017-12-21T01:22:20.929Z,7.69
2017-12-21T01:24:49.282Z,7.75
2017-12-21T01:27:17.613Z,7.76
2017-12-21T01:29:45.965Z,7.77
2017-12-21T01:32:14.299Z,7.68
2017-12-21T01:34:42.649Z,7.67
2017-12-21T01:37:11.002Z,7.72
2017-12-21T01:39:39.358Z,7.86
2017-12-21T01:42:07.691Z,7.80
2017-12-21T01:44:36.065Z,7.82
2017-12-21T01:47:04.390Z,7.79
2017-12-21T01:49:32.738Z,7.83
2017-12-21T01:52:01.076Z,7.81
2017-12-21T01:54:29.441Z,7.90
2017-12-21T01:56:57.775Z,7.87
2017-12-21T01:59:26.129Z,7.85
2017-12-21T02:01:54.454Z,7.87
2017-12-21T02:04:22.825Z,7.95
2017-12-21T02:06:51.159Z,7.89
2017-12-21T02:09:19.510Z,7.91
2017-12-21T02:11:47.837Z,7.95
2017-12-21T02:14:16.185Z,7.97
2017-12-21T02:16:44.521Z,8.01
2017-12-21T02:19:12.879Z,7.98
2017-12-21T02:21:41.206Z,8.07
2017-12-21T02:24:09.588Z,8.03
2017-12-21T02:26:37.919Z,8.08
2017-12-21T02:29:06.266Z,8.03
2017-12-21T02:31:34.604Z,8.11
2017-12-21T02:34:02.954Z,8.05
2017-12-21T02:36:31.298Z,8.07
2017-12-21T02:38:59.658Z,8.04
2017-12-21T02:41:27.990Z,8.07
2017-12-21T02:43:56.378Z,8.05
2017-12-21T02:46:24.717Z,8.07
2017-12-21T02:48:53.078Z,8.03
2017-12-21T02:51:21.419Z,8.09
2017-12-21T02:53:49.784Z,8.02
2017-12-21T02:56:18.113Z,8.08
2017-12-21T02:58:46.478Z,8.08
2017-12-21T03:01:14.811Z,8.05
2017-12-21T03:03:43.242Z,8.11
2017-12-21T03:06:11.593Z,8.04
2017-12-21T03:08:39.923Z,8.11
2017-12-21T03:11:08.273Z,8.08
2017-12-21T03:13:36.646Z,8.10
2017-12-21T03:16:04.998Z,8.11
2017-12-21T03:18:33.334Z,8.07
2017-12-21T03:21:01.682Z,8.03
2017-12-21T03:23:30.013Z,8.06
2017-12-21T03:25:58.372Z,8.01
2017-12-21T03:28:26.708Z,7.91
2017-12-21T03:30:55.065Z,7.91
2017-12-21T03:33:23.401Z,7.95
2017-12-21T03:35:51.750Z,7.94
2017-12-21T03:38:20.086Z,7.90
2017-12-21T03:40:48.435Z,7.91
2017-12-21T03:43:16.770Z,7.86
2017-12-21T03:45:45.126Z,7.86
2017-12-21T03:48:13.462Z,7.93
2017-12-21T03:50:41.827Z,7.90
2017-12-21T03:53:10.172Z,7.90
2017-12-21T03:55:38.527Z,7.94
2017-12-21T03:58:06.857Z,7.84
2017-12-21T04:00:35.205Z,7.87
2017-12-21T04:03:03.544Z,7.84
2017-12-21T04:05:31.902Z,7.86
2017-12-21T04:08:00.236Z,7.85
2017-12-21T04:10:28.586Z,7.84
2017-12-21T04:12:56.913Z,7.85
2017-12-21T04:15:25.266Z,7.90
2017-12-21T04:17:53.602Z,7.85
2017-12-21T04:20:21.950Z,7.86
2017-12-21T04:22:50.286Z,7.87
2017-12-21T04:25:18.646Z,7.84
2017-12-21T04:27:46.978Z,7.84
2017-12-21T04:30:15.357Z,7.91
2017-12-21T04:32:43.759Z,7.89
2017-12-21T04:35:12.442Z,7.90
2017-12-21T04:37:40.771Z,7.98
2017-12-21T04:40:09.132Z,7.90
2017-12-21T04:42:37.470Z,7.90
2017-12-21T04:45:05.821Z,7.92
2017-12-21T04:47:34.158Z,7.97
2017-12-21T04:50:02.514Z,7.95
2017-12-21T04:52:30.846Z,7.90
2017-12-21T04:54:59.202Z,7.87
2017-12-21T04:57:27.622Z,7.97
2017-12-21T04:59:55.931Z,7.99
2017-12-21T05:02:24.259Z,7.93
2017-12-21T05:04:52.618Z,7.91
2017-12-21T05:07:20.971Z,7.99
2017-12-21T05:09:49.355Z,7.94
2017-12-21T05:12:17.715Z,7.98
2017-12-21T05:14:46.047Z,7.94
2017-12-21T05:17:14.398Z,7.96
2017-12-21T05:19:42.740Z,7.97
2017-12-21T05:22:11.091Z,7.94
2017-12-21T05:24:39.425Z,8.03
2017-12-21T05:27:07.786Z,8.05
2017-12-21T05:29:36.118Z,8.00
2017-12-21T05:32:04.472Z,8.02
2017-12-21T05:34:32.806Z,8.00
2017-12-21T05:37:01.163Z,7.96
2017-12-21T05:39:29.504Z,7.95
2017-12-21T05:41:57.857Z,7.97
2017-12-21T05:44:26.190Z,7.97
2017-12-21T05:46:54.569Z,8.01
2017-12-21T05:49:22.901Z,7.98
2017-12-21T05:51:51.259Z,8.02
2017-12-21T05:54:19.590Z,7.97
2017-12-21T05:56:47.970Z,7.95
2017-12-21T05:59:16.318Z,7.99
2017-12-21T06:01:44.670Z,8.06
2017-12-21T06:04:13.030Z,7.98
2017-12-21T06:06:41.381Z,7.95
2017-12-21T06:09:09.720Z,8.04
2017-12-21T06:11:38.074Z,8.01
2017-12-21T06:14:06.406Z,8.01
2017-12-21T06:16:34.768Z,7.98
2017-12-21T06:19:03.095Z,8.05
2017-12-21T06:21:31.446Z,8.05
2017-12-21T06:23:59.784Z,8.11
2017-12-21T06:26:28.130Z,8.18
2017-12-21T06:28:56.467Z,8.20
2017-12-21T06:31:24.822Z,8.14
2017-12-21T06:33:53.154Z,8.21
2017-12-21T06:36:21.502Z,8.19
2017-12-21T06:38:49.835Z,8.25
2017-12-21T06:41:18.190Z,8.25
2017-12-21T06:43:46.518Z,8.27
2017-12-21T06:46:14.871Z,8.28
2017-12-21T06:48:43.193Z,8.30
2017-12-21T06:51:11.537Z,8.31
2017-12-21T06:53:39.862Z,8.27
2017-12-21T06:56:08.210Z,8.28
2017-12-21T06:58:36.542Z,8.29
2017-12-21T07:01:04.887Z,8.29
2017-12-21T07:03:33.221Z,8.25
2017-12-21T07:06:01.546Z,8.30
2017-12-21T07:08:29.894Z,8.24
2017-12-21T07:10:58.226Z,8.25
2017-12-21T07:13:26.574Z,8.22
2017-12-21T07:15:54.899Z,8.30
2017-12-21T07:18:23.258Z,8.33
2017-12-21T07:20:51.578Z,8.35
2017-12-21T07:23:19.926Z,8.38
2017-12-21T07:25:49.194Z,8.35
2017-12-21T07:28:17.539Z,8.28
2017-12-21T07:30:45.870Z,8.38
2017-12-21T07:33:14.223Z,8.35
2017-12-21T07:35:44.441Z,8.36
2017-12-21T07:38:12.787Z,8.36
2017-12-21T07:40:41.114Z,8.42
2017-12-21T07:43:09.466Z,8.44
2017-12-21T07:45:37.793Z,8.39
2017-12-21T07:48:06.211Z,8.29
2017-12-21T07:50:34.509Z,8.37
2017-12-21T07:53:02.869Z,8.37
2017-12-21T07:55:31.193Z,8.36
2017-12-21T07:57:59.548Z,8.42
2017-12-21T08:00:27.873Z,8.42
2017-12-21T08:02:56.246Z,8.44
2017-12-21T08:05:24.574Z,8.49
2017-12-21T08:07:52.927Z,8.44
2017-12-21T08:10:21.259Z,8.41
2017-12-21T08:12:49.610Z,8.42
2017-12-21T08:15:18.962Z,8.46
2017-12-21T08:17:48.114Z,8.47
2017-12-21T08:20:16.453Z,8.57
2017-12-21T08:22:44.798Z,8.47
2017-12-21T08:25:13.125Z,8.54
2017-12-21T08:27:41.486Z,8.53
2017-12-21T08:30:10.140Z,8.54
2017-12-21T08:32:38.486Z,8.46
2017-12-21T08:35:06.881Z,8.48
2017-12-21T08:37:35.229Z,8.47
2017-12-21T08:40:03.558Z,8.50
2017-12-21T08:42:31.906Z,8.49
2017-12-21T08:45:00.235Z,8.53
2017-12-21T08:47:28.586Z,8.60
2017-12-21T08:49:56.910Z,8.56
2017-12-21T08:52:25.261Z,8.64
2017-12-21T08:54:53.911Z,8.60
2017-12-21T08:57:22.262Z,8.61
2017-12-21T08:59:50.599Z,8.65
2017-12-21T09:02:18.963Z,8.70
2017-12-21T09:04:47.290Z,8.67
2017-12-21T09:07:15.652Z,8.69
2017-12-21T09:09:43.984Z,8.65
2017-12-21T09:12:12.324Z,8.72
2017-12-21T09:14:40.683Z,8.70
2017-12-21T09:17:09.017Z,8.66
2017-12-21T09:19:37.379Z,8.73
2017-12-21T09:22:05.815Z,8.69
2017-12-21T09:24:34.175Z,8.68
2017-12-21T09:27:02.615Z,8.70
2017-12-21T09:29:31.119Z,8.70
2017-12-21T09:31:59.458Z,8.65
2017-12-21T09:34:28.025Z,8.73
2017-12-21T09:36:56.368Z,8.63
2017-12-21T09:39:24.834Z,8.66
2017-12-21T09:41:53.181Z,8.67
2017-12-21T09:46:56.258Z,8.64
2017-12-21T09:49:24.625Z,8.64
2017-12-21T09:51:52.959Z,8.64
2017-12-21T09:54:21.318Z,8.65
2017-12-21T09:56:49.654Z,8.67
2017-12-21T09:59:18.003Z,8.69
2017-12-21T10:01:46.339Z,8.73
2017-12-21T10:04:14.794Z,8.68
2017-12-21T10:06:43.215Z,8.75
2017-12-21T10:09:11.570Z,8.71
2017-12-21T10:11:39.922Z,8.69
2017-12-21T10:14:08.275Z,8.67
2017-12-21T10:16:36.610Z,8.76
2017-12-21T10:19:04.975Z,8.82
2017-12-21T10:21:33.431Z,8.77
2017-12-21T10:24:01.792Z,8.75
2017-12-21T10:26:30.314Z,8.78
2017-12-21T10:28:58.874Z,8.81
2017-12-21T10:31:27.370Z,8.74
2017-12-21T10:33:55.730Z,8.78
2017-12-21T10:36:24.187Z,8.81
2017-12-21T10:38:52.558Z,8.79
2017-12-21T10:41:20.948Z,8.81
2017-12-21T10:43:49.370Z,8.82
2017-12-21T10:46:17.704Z,8.85
2017-12-21T10:48:47.551Z,8.88
2017-12-21T10:51:16.042Z,8.88
2017-12-21T10:53:44.630Z,8.85
2017-12-21T10:56:13.263Z,8.91
2017-12-21T10:58:41.666Z,8.83
2017-12-21T11:01:10.289Z,8.86
2017-12-21T11:03:39.622Z,8.93
2017-12-21T11:06:08.011Z,8.97
2017-12-21T11:08:36.386Z,8.98
2017-12-21T11:11:05.282Z,9.02
2017-12-21T11:13:33.657Z,8.97
2017-12-21T11:16:02.034Z,8.96
2017-12-21T11:18:30.471Z,9.02
2017-12-21T11:20:58.799Z,9.04
2017-12-21T11:23:27.956Z,9.12
2017-12-21T11:25:56.900Z,9.04
2017-12-21T11:28:25.339Z,8.97
2017-12-21T11:30:53.691Z,9.07
2017-12-21T11:33:22.210Z,9.07
2017-12-21T11:35:51.507Z,9.10
2017-12-21T11:38:20.222Z,9.07
2017-12-21T11:40:48.777Z,9.06
2017-12-21T11:43:17.123Z,9.10
2017-12-21T11:45:45.475Z,9.07
2017-12-21T11:48:13.842Z,9.06
2017-12-21T11:50:42.230Z,9.07
2017-12-21T11:53:10.546Z,9.19
2017-12-21T11:55:38.894Z,9.16
2017-12-21T11:58:07.231Z,9.22
2017-12-21T12:00:35.907Z,9.17
2017-12-21T12:03:04.874Z,9.13
2017-12-21T12:05:34.554Z,9.10
2017-12-21T12:08:03.174Z,9.18
2017-12-21T12:10:32.940Z,9.14
2017-12-21T12:13:01.640Z,9.20
2017-12-21T12:15:32.624Z,9.18
2017-12-21T12:18:01.275Z,9.18
2017-12-21T12:20:29.908Z,9.20
2017-12-21T12:22:58.543Z,9.17
2017-12-21T12:25:28.140Z,9.12
2017-12-21T12:27:57.383Z,9.17
2017-12-21T12:30:25.973Z,9.18
2017-12-21T12:32:54.568Z,9.15
2017-12-21T12:35:23.182Z,9.12
2017-12-21T12:37:52.023Z,9.28
2017-12-21T12:40:20.519Z,9.35
2017-12-21T12:42:49.034Z,9.37
2017-12-21T12:45:18.215Z,9.38
2017-12-21T12:47:46.734Z,9.37
2017-12-21T12:50:15.423Z,9.42
2017-12-21T12:52:43.831Z,9.37
2017-12-21T12:55:12.324Z,9.42
2017-12-21T12:57:40.830Z,9.43
2017-12-21T13:00:09.796Z,9.40
2017-12-21T13:02:39.179Z,9.29
2017-12-21T13:05:08.501Z,9.33
2017-12-21T13:07:36.940Z,9.42
2017-12-21T13:10:05.366Z,9.42
2017-12-21T13:12:33.824Z,9.42
2017-12-21T13:15:02.322Z,9.41
2017-12-21T13:17:30.934Z,9.37
2017-12-21T13:19:59.557Z,9.31
2017-12-21T13:22:28.096Z,9.33
2017-12-21T13:24:56.720Z,9.26
2017-12-21T13:27:25.284Z,9.24
2017-12-21T13:29:53.876Z,9.31
2017-12-21T13:32:22.376Z,9.23
2017-12-21T13:34:50.883Z,9.23
2017-12-21T13:37:19.355Z,9.18
2017-12-21T13:39:47.927Z,9.20
2017-12-21T13:42:16.438Z,9.15
2017-12-21T13:44:44.763Z,9.21
2017-12-21T13:47:13.131Z,9.24
2017-12-21T13:49:41.574Z,9.24
2017-12-21T13:52:09.947Z,9.22
2017-12-21T13:54:38.424Z,9.26
2017-12-21T13:57:06.788Z,9.23
2017-12-21T13:59:35.163Z,9.27
2017-12-21T14:02:03.558Z,9.17
2017-12-21T14:04:33.542Z,9.24
2017-12-21T14:07:02.068Z,9.14
2017-12-21T14:09:30.520Z,9.19
2017-12-21T14:11:59.100Z,9.06
2017-12-21T14:14:27.604Z,9.16
2017-12-21T14:16:56.193Z,9.14
2017-12-21T14:19:24.811Z,9.15
2017-12-21T14:21:53.253Z,9.21
2017-12-21T14:24:21.696Z,9.24
2017-12-21T14:26:51.905Z,9.27
2017-12-21T14:29:21.061Z,9.20
2017-12-21T14:31:50.388Z,9.30
2017-12-21T14:34:18.850Z,9.43
2017-12-21T14:36:47.430Z,9.32
2017-12-21T14:39:15.943Z,9.42
2017-12-21T14:41:44.386Z,9.39
2017-12-21T14:44:13.809Z,9.32
2017-12-21T14:46:42.599Z,9.37
2017-12-21T14:49:11.274Z,9.36
2017-12-21T14:51:40.748Z,9.20
2017-12-21T14:54:10.621Z,9.17
2017-12-21T14:56:39.185Z,9.18
2017-12-21T14:59:08.608Z,9.09
2017-12-21T15:01:37.236Z,9.04
2017-12-21T15:04:06.710Z,9.15
2017-12-21T15:06:35.916Z,9.18
2017-12-21T15:09:04.417Z,9.11
2017-12-21T15:11:32.992Z,9.10
2017-12-21T15:14:01.573Z,9.12
2017-12-21T15:16:30.008Z,9.20
2017-12-21T15:18:58.355Z,9.16
2017-12-21T15:21:26.708Z,9.16
2017-12-21T15:23:55.035Z,9.15
2017-12-21T15:26:23.382Z,9.21
2017-12-21T15:28:51.784Z,9.17
2017-12-21T15:31:20.134Z,9.19
2017-12-21T15:33:48.458Z,9.11
2017-12-21T15:36:16.815Z,8.97
2017-12-21T15:38:45.145Z,9.12
2017-12-21T15:41:13.510Z,9.16
2017-12-21T15:43:41.914Z,9.23
2017-12-21T15:46:10.263Z,9.23
2017-12-21T15:48:38.601Z,9.27
2017-12-21T15:51:06.953Z,9.28
2017-12-21T15:53:35.740Z,9.26
2017-12-21T15:56:04.121Z,9.28
2017-12-21T15:58:32.446Z,9.28
2017-12-21T16:01:00.782Z,9.30
2017-12-21T16:03:29.139Z,9.25
2017-12-21T16:05:57.472Z,9.25
2017-12-21T16:08:25.822Z,9.19
2017-12-21T16:10:54.173Z,9.34
2017-12-21T16:13:22.526Z,9.21
2017-12-21T16:15:50.873Z,9.10
2017-12-21T16:18:19.247Z,9.14
2017-12-21T16:20:47.575Z,9.12
2017-12-21T16:23:15.976Z,9.15
2017-12-21T16:25:44.307Z,9.11
2017-12-21T16:28:12.663Z,9.13
2017-12-21T16:30:41.003Z,9.69
2017-12-21T16:33:09.353Z,9.51
2017-12-21T16:35:38.586Z,9.49
2017-12-21T16:38:06.934Z,9.26
2017-12-21T16:40:35.270Z,9.29
2017-12-21T16:43:03.640Z,9.18
2017-12-21T16:45:31.970Z,9.13
2017-12-21T16:48:00.334Z,8.98
2017-12-21T16:50:28.666Z,8.96
2017-12-21T16:52:57.670Z,9.01
2017-12-21T16:55:26.004Z,8.84
2017-12-21T16:57:54.365Z,8.94
2017-12-21T17:00:22.715Z,8.90
2017-12-21T17:02:51.067Z,8.96
2017-12-21T17:05:19.403Z,8.91
2017-12-21T17:07:47.763Z,8.81
2017-12-21T17:10:16.099Z,8.81
2017-12-21T17:12:45.478Z,8.89
2017-12-21T17:15:14.847Z,8.97
2017-12-21T17:17:43.182Z,9.02
2017-12-21T17:20:11.582Z,9.11
2017-12-21T17:22:39.927Z,9.19
2017-12-21T17:25:08.330Z,9.14
2017-12-21T17:27:36.678Z,8.94
2017-12-21T17:30:05.010Z,8.89
2017-12-21T17:32:33.382Z,8.93
2017-12-21T17:35:01.743Z,8.95
2017-12-21T17:37:30.096Z,8.96
2017-12-21T17:39:58.440Z,8.97
2017-12-21T17:42:26.818Z,9.04
2017-12-21T17:44:55.147Z,8.92
2017-12-21T17:47:23.536Z,8.91
2017-12-21T17:49:51.864Z,8.98
2017-12-21T17:52:20.235Z,8.83
2017-12-21T17:54:48.585Z,8.96
2017-12-21T17:57:16.942Z,8.80
2017-12-21T17:59:45.304Z,8.86
2017-12-21T18:02:13.630Z,8.96
2017-12-21T18:04:41.978Z,9.02
2017-12-21T18:07:10.306Z,9.03
2017-12-21T18:09:38.663Z,8.98
2017-12-21T18:12:07.011Z,9.12
2017-12-21T18:14:35.400Z,9.06
2017-12-21T18:17:03.724Z,8.91
2017-12-21T18:19:32.066Z,8.90
2017-12-21T18:22:00.402Z,8.86
2017-12-21T18:24:28.762Z,8.84
2017-12-21T18:26:57.099Z,8.82
2017-12-21T18:29:25.475Z,8.87
2017-12-21T18:31:53.865Z,8.90
2017-12-21T18:34:22.219Z,8.75
2017-12-21T18:36:50.552Z,8.58
2017-12-21T18:39:18.908Z,8.63
2017-12-21T18:41:47.233Z,8.61
2017-12-21T18:44:15.594Z,8.60
2017-12-21T18:46:43.929Z,8.70
2017-12-21T18:49:12.280Z,8.71
2017-12-21T18:51:40.616Z,8.70
2017-12-21T18:54:08.984Z,8.63
2017-12-21T18:56:37.340Z,8.65
2017-12-21T18:59:05.839Z,8.41
2017-12-21T19:01:34.172Z,8.25
2017-12-21T19:04:03.320Z,8.35
2017-12-21T19:06:32.638Z,8.35
2017-12-21T19:09:00.979Z,8.16
2017-12-21T19:11:29.315Z,8.12
2017-12-21T19:13:57.718Z,8.11
2017-12-21T19:16:26.096Z,8.03
2017-12-21T19:18:54.887Z,8.04
2017-12-21T19:21:23.227Z,7.98
2017-12-21T19:23:51.606Z,8.08
2017-12-21T19:26:20.814Z,8.17
2017-12-21T19:28:49.908Z,8.02
2017-12-21T19:31:18.242Z,8.01
2017-12-21T19:33:46.654Z,8.03
2017-12-21T19:36:14.981Z,8.18
2017-12-21T19:38:43.370Z,8.17
2017-12-21T19:41:11.765Z,8.00
2017-12-21T19:43:40.186Z,8.11
2017-12-21T19:46:08.506Z,8.11
2017-12-21T19:48:36.863Z,7.85
2017-12-21T19:51:05.211Z,7.78
2017-12-21T19:53:33.576Z,7.95
2017-12-21T19:56:02.906Z,7.99
2017-12-21T19:58:31.410Z,8.02
2017-12-21T20:00:59.747Z,8.01
2017-12-21T20:03:28.098Z,7.83
2017-12-21T20:05:56.425Z,7.74
2017-12-21T20:08:24.794Z,7.69
2017-12-21T20:10:53.167Z,7.84
2017-12-21T20:13:21.565Z,7.82
2017-12-21T20:15:49.907Z,7.70
2017-12-21T20:18:18.246Z,7.87
2017-12-21T20:20:46.650Z,7.73
2017-12-21T20:23:15.080Z,7.75
2017-12-21T20:25:43.450Z,7.72
2017-12-21T20:28:11.789Z,7.75
2017-12-21T20:30:40.131Z,7.71
2017-12-21T20:33:08.483Z,7.59
2017-12-21T20:35:36.918Z,7.76
2017-12-21T20:38:05.235Z,7.75
2017-12-21T20:40:33.626Z,7.61
2017-12-21T20:43:01.954Z,7.49
2017-12-21T20:45:30.310Z,7.66
2017-12-21T20:47:59.584Z,7.45
2017-12-21T20:50:27.930Z,7.54
2017-12-21T20:52:56.257Z,7.58
2017-12-21T20:55:24.607Z,7.63
2017-12-21T20:57:52.938Z,7.49
2017-12-21T21:00:21.283Z,7.53
2017-12-21T21:02:49.619Z,7.47
2017-12-21T21:05:17.971Z,7.53
2017-12-21T21:07:47.170Z,7.49
2017-12-21T21:10:15.518Z,7.49
2017-12-21T21:12:43.851Z,7.53
2017-12-21T21:15:12.511Z,7.62
2017-12-21T21:17:40.840Z,7.51
2017-12-21T21:20:09.190Z,7.43
2017-12-21T21:22:37.534Z,7.53
2017-12-21T21:25:05.882Z,7.46
2017-12-21T21:27:34.630Z,7.48
2017-12-21T21:30:02.986Z,7.46
2017-12-21T21:32:31.314Z,7.30
2017-12-21T21:34:59.750Z,7.37
2017-12-21T21:37:28.083Z,7.26
2017-12-21T21:39:56.426Z,7.25
2017-12-21T21:42:24.819Z,7.33
2017-12-21T21:44:53.150Z,7.24
2017-12-21T21:47:22.474Z,7.24
2017-12-21T21:49:50.822Z,7.32
2017-12-21T21:52:19.160Z,7.30
2017-12-21T21:54:47.513Z,7.38
2017-12-21T21:57:15.842Z,7.41
2017-12-21T21:59:44.186Z,7.49
2017-12-21T22:02:12.515Z,7.48
2017-12-21T22:04:40.862Z,7.52
2017-12-21T22:07:09.195Z,7.45
2017-12-21T22:09:37.567Z,7.43
2017-12-21T22:12:05.894Z,7.39
2017-12-21T22:14:34.218Z,7.52
2017-12-21T22:17:02.574Z,7.32
2017-12-21T22:19:30.898Z,7.39
2017-12-21T22:21:59.251Z,7.33
2017-12-21T22:24:27.574Z,7.15
2017-12-21T22:26:55.927Z,7.14
2017-12-21T22:29:24.258Z,7.34
2017-12-21T22:31:52.605Z,7.26
2017-12-21T22:34:20.943Z,7.28
2017-12-21T22:36:49.294Z,7.42
2017-12-21T22:39:17.627Z,7.37
2017-12-21T22:41:45.974Z,7.39
2017-12-21T22:44:14.306Z,7.27
2017-12-21T22:46:42.720Z,7.40
2017-12-21T22:49:11.031Z,7.35
2017-12-21T22:51:39.378Z,7.40
2017-12-21T22:54:07.706Z,7.49
2017-12-21T22:56:36.058Z,7.56
2017-12-21T22:59:04.390Z,7.50
2017-12-21T23:01:32.738Z,7.45
2017-12-21T23:04:01.075Z,7.32
2017-12-21T23:06:29.422Z,7.30
2017-12-21T23:08:57.749Z,7.47
2017-12-21T23:11:26.106Z,7.43
2017-12-21T23:13:54.431Z,7.50
2017-12-21T23:16:22.779Z,7.49
2017-12-21T23:18:51.107Z,7.47
2017-12-21T23:21:19.473Z,7.47
2017-12-21T23:23:47.799Z,7.42
2017-12-21T23:26:16.132Z,7.49
2017-12-21T23:28:44.478Z,7.39
2017-12-21T23:31:12.806Z,7.28
2017-12-21T23:33:41.154Z,7.37
2017-12-21T23:36:09.483Z,7.32
2017-12-21T23:38:37.838Z,7.36
2017-12-21T23:41:06.166Z,7.26
2017-12-21T23:43:34.782Z,7.33
2017-12-21T23:46:03.124Z,7.18
2017-12-21T23:48:31.474Z,7.16
2017-12-21T23:50:59.808Z,7.08
2017-12-21T23:53:28.158Z,7.08
2017-12-21T23:55:56.490Z,7.09
2017-12-21T23:58:24.843Z,7.06
